createdAt,value
2018-11-12T00:01:20.244Z,6.61
2018-11-12T00:03:55.250Z,6.54
2018-11-12T00:06:29.780Z,6.52
2018-11-12T00:09:05.356Z,6.55
2018-11-12T00:11:39.973Z,6.58
2018-11-12T00:14:14.932Z,6.56
2018-11-12T00:16:49.892Z,6.55
2018-11-12T00:19:24.520Z,6.55
2018-11-12T00:21:59.070Z,6.53
2018-11-12T00:24:34.350Z,6.45
2018-11-12T00:27:08.754Z,6.38
2018-11-12T00:29:43.413Z,6.33
2018-11-12T00:32:18.112Z,6.28
2018-11-12T00:34:53.084Z,6.24
2018-11-12T00:37:27.905Z,6.21
2018-11-12T00:40:03.107Z,6.08
2018-11-12T00:42:38.646Z,6.06
2018-11-12T00:45:13.193Z,5.94
2018-11-12T00:47:50.073Z,5.90
2018-11-12T00:50:24.809Z,5.92
2018-11-12T00:52:59.505Z,5.83
2018-11-12T00:55:34.133Z,5.79
2018-11-12T00:58:09.353Z,5.69
2018-11-12T01:00:44.440Z,5.70
2018-11-12T01:03:18.893Z,5.65
2018-11-12T01:05:53.792Z,5.59
2018-11-12T01:08:28.759Z,5.56
2018-11-12T01:11:03.817Z,5.55
2018-11-12T01:13:38.565Z,5.56
2018-11-12T01:16:13.258Z,5.50
2018-11-12T01:18:48.293Z,5.47
2018-11-12T01:21:22.560Z,5.44
2018-11-12T01:23:56.838Z,5.42
2018-11-12T01:26:31.137Z,5.39
2018-11-12T01:29:06.476Z,5.37
2018-11-12T01:31:41.337Z,5.36
2018-11-12T01:34:16.046Z,5.30
2018-11-12T01:36:50.817Z,5.25
2018-11-12T01:39:25.329Z,5.19
2018-11-12T01:42:00.771Z,5.18
2018-11-12T01:44:35.417Z,5.13
2018-11-12T01:47:09.845Z,5.25
2018-11-12T01:49:44.186Z,5.10
2018-11-12T01:52:18.577Z,5.12
2018-11-12T01:54:52.925Z,5.04
2018-11-12T01:57:27.756Z,4.94
2018-11-12T02:00:02.255Z,5.01
2018-11-12T02:02:37.341Z,4.99
2018-11-12T02:05:12.383Z,4.99
2018-11-12T02:07:47.384Z,4.94
2018-11-12T02:10:21.948Z,5.02
2018-11-12T02:12:56.608Z,4.99
2018-11-12T02:15:31.160Z,5.01
2018-11-12T02:18:05.836Z,5.01
2018-11-12T02:20:40.549Z,4.99
2018-11-12T02:23:15.435Z,4.99
2018-11-12T02:25:50.207Z,4.96
2018-11-12T02:28:24.566Z,4.94
2018-11-12T02:30:59.314Z,4.92
2018-11-12T02:33:33.757Z,4.83
2018-11-12T02:36:08.429Z,4.81
2018-11-12T02:38:43.134Z,4.74
2018-11-12T02:41:17.757Z,4.83
2018-11-12T02:43:52.173Z,4.77
2018-11-12T02:46:26.817Z,4.71
2018-11-12T02:49:01.321Z,4.75
2018-11-12T02:51:35.879Z,4.66
2018-11-12T02:54:10.478Z,4.65
2018-11-12T02:56:45.253Z,4.59
2018-11-12T02:59:20.109Z,4.72
2018-11-12T03:01:54.836Z,4.63
2018-11-12T03:04:29.373Z,4.51
2018-11-12T03:07:04.628Z,4.55
2018-11-12T03:09:38.984Z,4.63
2018-11-12T03:12:14.246Z,4.55
2018-11-12T03:14:48.653Z,4.42
2018-11-12T03:17:23.509Z,4.37
2018-11-12T03:19:58.056Z,4.38
2018-11-12T03:22:32.561Z,4.37
2018-11-12T03:25:08.106Z,4.39
2018-11-12T03:27:43.316Z,4.45
2018-11-12T03:30:23.840Z,4.48
2018-11-12T03:32:58.703Z,4.45
2018-11-12T03:35:33.652Z,4.47
2018-11-12T03:38:08.620Z,4.52
2018-11-12T03:40:43.240Z,4.48
2018-11-12T03:43:17.693Z,4.46
2018-11-12T03:45:52.248Z,4.37
2018-11-12T03:48:26.740Z,4.29
2018-11-12T03:51:01.369Z,4.23
2018-11-12T03:53:36.340Z,4.23
2018-11-12T03:56:11.434Z,4.20
2018-11-12T03:58:47.721Z,4.08
2018-11-12T04:01:22.369Z,4.11
2018-11-12T04:03:57.468Z,4.23
2018-11-12T04:06:31.931Z,4.23
2018-11-12T04:09:07.339Z,4.24
2018-11-12T04:11:46.616Z,4.22
2018-11-12T04:14:21.044Z,4.19
2018-11-12T04:16:56.328Z,4.22
2018-11-12T04:19:30.990Z,4.23
2018-11-12T04:22:05.755Z,4.24
2018-11-12T04:24:40.480Z,4.24
2018-11-12T04:27:14.763Z,4.22
2018-11-12T04:29:49.548Z,4.24
2018-11-12T04:32:23.993Z,4.15
2018-11-12T04:34:58.332Z,4.12
2018-11-12T04:37:32.768Z,4.08
2018-11-12T04:40:12.112Z,4.09
2018-11-12T04:42:47.445Z,4.05
2018-11-12T04:45:23.252Z,4.05
2018-11-12T04:47:58.192Z,4.18
2018-11-12T04:50:32.801Z,4.14
2018-11-12T04:53:07.220Z,4.07
2018-11-12T04:55:41.900Z,4.06
2018-11-12T04:58:16.721Z,4.10
2018-11-12T05:00:51.884Z,4.12
2018-11-12T05:03:26.205Z,4.09
2018-11-12T05:06:01.097Z,4.09
2018-11-12T05:08:35.393Z,4.00
2018-11-12T05:11:09.760Z,4.05
2018-11-12T05:13:44.421Z,4.01
2018-11-12T05:16:19.240Z,3.97
2018-11-12T05:18:53.929Z,4.00
2018-11-12T05:21:28.477Z,3.93
2018-11-12T05:24:03.084Z,3.85
2018-11-12T05:26:37.749Z,3.95
2018-11-12T05:29:12.178Z,3.94
2018-11-12T05:31:46.850Z,3.90
2018-11-12T05:34:21.201Z,3.92
2018-11-12T05:36:55.643Z,3.96
2018-11-12T05:39:30.485Z,3.88
2018-11-12T05:42:05.848Z,3.73
2018-11-12T05:44:40.532Z,3.79
2018-11-12T05:47:15.393Z,3.70
2018-11-12T05:49:50.380Z,3.80
2018-11-12T05:52:24.945Z,3.82
2018-11-12T05:54:59.678Z,3.83
2018-11-12T05:57:34.242Z,3.86
2018-11-12T06:00:10.026Z,3.86
2018-11-12T06:02:44.917Z,3.84
2018-11-12T06:05:19.482Z,3.86
2018-11-12T06:07:54.594Z,3.81
2018-11-12T06:10:30.285Z,3.88
2018-11-12T06:13:04.876Z,3.84
2018-11-12T06:15:39.400Z,3.87
2018-11-12T06:18:14.040Z,3.88
2018-11-12T06:20:48.552Z,3.90
2018-11-12T06:23:23.665Z,3.94
2018-11-12T06:25:58.613Z,3.89
2018-11-12T06:28:33.228Z,3.87
2018-11-12T06:31:08.233Z,3.92
2018-11-12T06:33:42.686Z,3.93
2018-11-12T06:36:17.535Z,3.90
2018-11-12T06:38:52.561Z,3.81
2018-11-12T06:41:27.104Z,3.89
2018-11-12T06:44:01.446Z,3.85
2018-11-12T06:46:36.125Z,3.87
2018-11-12T06:49:10.504Z,3.96
2018-11-12T06:51:45.079Z,4.04
2018-11-12T06:54:19.508Z,4.02
2018-11-12T06:56:53.954Z,4.02
2018-11-12T06:59:28.436Z,4.06
2018-11-12T07:02:02.692Z,4.14
2018-11-12T07:04:37.140Z,4.20
2018-11-12T07:07:11.606Z,4.24
2018-11-12T07:09:46.118Z,4.29
2018-11-12T07:12:20.939Z,4.36
2018-11-12T07:14:55.399Z,4.43
2018-11-12T07:17:29.700Z,4.52
2018-11-12T07:20:04.101Z,4.64
2018-11-12T07:22:38.877Z,4.76
2018-11-12T07:25:14.001Z,4.88
2018-11-12T07:27:48.752Z,4.96
2018-11-12T07:30:25.547Z,5.09
2018-11-12T07:33:00.426Z,5.26
2018-11-12T07:35:34.928Z,5.37
2018-11-12T07:38:09.388Z,5.49
2018-11-12T07:40:44.569Z,5.62
2018-11-12T07:43:18.878Z,5.79
2018-11-12T07:45:53.446Z,5.94
2018-11-12T07:48:27.952Z,6.17
2018-11-12T07:51:02.568Z,6.34
2018-11-12T07:53:37.353Z,6.50
2018-11-12T07:56:11.946Z,6.70
2018-11-12T07:58:46.705Z,6.87
2018-11-12T08:01:21.356Z,7.05
2018-11-12T08:03:55.869Z,7.25
2018-11-12T08:06:30.549Z,7.51
2018-11-12T08:09:06.979Z,7.74
2018-11-12T08:11:42.198Z,8.00
2018-11-12T08:14:17.168Z,8.25
2018-11-12T08:16:52.324Z,8.55
2018-11-12T08:19:26.990Z,8.85
2018-11-12T08:22:02.288Z,9.06
2018-11-12T08:24:36.901Z,9.25
2018-11-12T08:27:11.530Z,9.45
2018-11-12T08:29:46.217Z,9.55
2018-11-12T08:32:21.621Z,9.81
2018-11-12T08:34:56.168Z,10.01
2018-11-12T08:37:31.149Z,10.24
2018-11-12T08:40:07.923Z,10.42
2018-11-12T08:42:43.724Z,10.59
2018-11-12T08:45:18.170Z,10.70
2018-11-12T08:47:54.504Z,10.86
2018-11-12T08:50:29.272Z,11.06
2018-11-12T08:53:04.441Z,11.23
2018-11-12T08:55:39.098Z,11.44
2018-11-12T08:58:14.879Z,11.60
2018-11-12T09:00:48.765Z,11.70
2018-11-12T09:03:23.772Z,11.88
2018-11-12T09:05:58.598Z,12.05
2018-11-12T09:08:33.280Z,12.20
2018-11-12T09:11:08.580Z,12.36
2018-11-12T09:13:44.227Z,12.54
2018-11-12T09:16:19.199Z,12.70
2018-11-12T09:18:53.565Z,12.89
2018-11-12T09:21:28.188Z,12.94
2018-11-12T09:24:02.927Z,13.02
2018-11-12T09:26:38.156Z,13.15
2018-11-12T09:29:12.703Z,13.15
2018-11-12T09:31:47.962Z,13.23
2018-11-12T09:34:22.849Z,13.32
2018-11-12T09:36:57.888Z,13.41
2018-11-12T09:39:32.525Z,13.42
2018-11-12T09:42:07.537Z,13.28
2018-11-12T09:44:42.296Z,13.49
2018-11-12T09:47:16.812Z,13.61
2018-11-12T09:49:51.509Z,13.75
2018-11-12T09:52:26.255Z,13.82
2018-11-12T09:55:00.851Z,13.80
2018-11-12T09:57:35.552Z,13.79
2018-11-12T10:00:13.216Z,13.84
2018-11-12T10:02:50.136Z,13.82
2018-11-12T10:05:24.863Z,13.71
2018-11-12T10:08:04.016Z,13.63
2018-11-12T10:10:43.652Z,13.54
2018-11-12T10:13:22.212Z,13.46
2018-11-12T10:15:58.020Z,13.34
2018-11-12T10:18:29.978Z,13.30
2018-11-12T10:21:04.970Z,13.19
2018-11-12T10:23:39.386Z,13.10
2018-11-12T10:26:14.207Z,12.98
2018-11-12T10:28:48.661Z,13.03
2018-11-12T10:31:23.708Z,13.01
2018-11-12T10:33:58.189Z,12.97
2018-11-12T10:36:33.504Z,13.09
2018-11-12T10:39:09.473Z,13.12
2018-11-12T10:41:43.844Z,13.15
2018-11-12T10:44:18.289Z,13.19
2018-11-12T10:46:53.373Z,13.26
2018-11-12T10:49:27.885Z,13.31
2018-11-12T10:52:02.329Z,13.33
2018-11-12T10:54:36.850Z,13.34
2018-11-12T10:57:11.772Z,13.52
2018-11-12T10:59:46.281Z,13.54
2018-11-12T11:02:26.516Z,13.67
2018-11-12T11:05:01.758Z,13.65
2018-11-12T11:07:36.384Z,13.60
2018-11-12T11:10:10.744Z,13.64
2018-11-12T11:12:47.298Z,13.80
2018-11-12T11:15:22.322Z,13.95
2018-11-12T11:20:40.308Z,14.07
2018-11-12T11:23:14.909Z,14.26
2018-11-12T11:25:49.392Z,14.35
2018-11-12T11:28:24.374Z,14.58
2018-11-12T11:30:59.387Z,14.90
2018-11-12T11:33:34.140Z,15.17
2018-11-12T11:36:08.413Z,15.51
2018-11-12T11:38:42.977Z,15.98
2018-11-12T11:41:17.525Z,16.47
2018-11-12T11:43:51.935Z,16.87
2018-11-12T11:46:26.672Z,17.18
2018-11-12T11:49:01.218Z,17.56
2018-11-12T11:51:36.639Z,17.83
2018-11-12T11:54:11.768Z,18.14
2018-11-12T11:56:46.292Z,18.43
2018-11-12T11:59:20.849Z,18.55
2018-11-12T12:01:55.800Z,18.64
2018-11-12T12:04:30.749Z,18.84
2018-11-12T12:07:05.846Z,19.03
2018-11-12T12:09:40.669Z,19.19
2018-11-12T12:12:15.544Z,19.25
2018-11-12T12:14:50.413Z,19.45
2018-11-12T12:17:24.992Z,19.78
2018-11-12T12:19:59.659Z,19.82
2018-11-12T12:22:34.173Z,19.59
2018-11-12T12:25:10.725Z,19.57
2018-11-12T12:27:46.273Z,19.43
2018-11-12T12:30:23.323Z,19.41
2018-11-12T12:32:58.668Z,19.47
2018-11-12T12:35:33.879Z,19.30
2018-11-12T12:38:08.777Z,19.53
2018-11-12T12:40:43.469Z,19.77
2018-11-12T12:43:17.819Z,19.89
2018-11-12T12:45:52.391Z,20.21
2018-11-12T12:48:27.405Z,20.40
2018-11-12T12:51:01.887Z,20.56
2018-11-12T12:53:36.183Z,20.81
2018-11-12T12:56:10.795Z,20.93
2018-11-12T12:58:46.036Z,21.06
2018-11-12T13:01:20.583Z,21.05
2018-11-12T13:03:55.196Z,20.97
2018-11-12T13:06:29.937Z,20.68
2018-11-12T13:09:07.664Z,20.62
2018-11-12T13:11:42.271Z,20.55
2018-11-12T13:14:17.059Z,20.60
2018-11-12T13:16:52.269Z,20.75
2018-11-12T13:19:26.819Z,20.78
2018-11-12T13:22:01.539Z,20.75
2018-11-12T13:24:36.501Z,20.55
2018-11-12T13:27:11.085Z,20.49
2018-11-12T13:29:45.949Z,20.45
2018-11-12T13:32:20.545Z,20.53
2018-11-12T13:34:54.847Z,20.54
2018-11-12T13:37:29.141Z,20.52
2018-11-12T13:40:04.092Z,20.19
2018-11-12T13:42:38.598Z,19.86
2018-11-12T13:45:13.235Z,19.61
2018-11-12T13:47:48.247Z,19.36
2018-11-12T13:50:25.304Z,19.12
2018-11-12T13:53:01.294Z,18.84
2018-11-12T13:55:35.941Z,18.49
2018-11-12T13:58:10.388Z,18.29
2018-11-12T14:00:45.015Z,18.23
2018-11-12T14:03:19.528Z,17.77
2018-11-12T14:05:54.216Z,17.47
2018-11-12T14:08:29.173Z,16.89
2018-11-12T14:11:03.932Z,16.60
2018-11-12T14:13:38.900Z,16.36
2018-11-12T14:16:13.222Z,16.07
2018-11-12T14:18:48.412Z,15.92
2018-11-12T14:21:23.004Z,15.77
2018-11-12T14:23:57.852Z,15.65
2018-11-12T14:26:32.749Z,15.57
2018-11-12T14:29:08.023Z,15.46
2018-11-12T14:31:42.963Z,15.31
2018-11-12T14:34:17.497Z,15.21
2018-11-12T14:36:52.522Z,15.15
2018-11-12T14:39:26.953Z,15.04
2018-11-12T14:42:02.076Z,14.98
2018-11-12T14:44:37.309Z,15.01
2018-11-12T14:47:11.786Z,14.92
2018-11-12T14:49:46.108Z,14.80
2018-11-12T14:52:21.246Z,14.66
2018-11-12T14:54:55.985Z,14.56
2018-11-12T14:57:31.062Z,14.44
2018-11-12T15:00:15.540Z,14.41
2018-11-12T15:02:51.885Z,14.22
2018-11-12T15:05:26.832Z,14.15
2018-11-12T15:08:01.910Z,14.08
2018-11-12T15:10:36.337Z,14.05
2018-11-12T15:13:10.916Z,13.92
2018-11-12T15:15:45.375Z,13.76
2018-11-12T15:18:20.168Z,13.63
2018-11-12T15:20:54.958Z,13.62
2018-11-12T15:23:30.068Z,13.57
2018-11-12T15:26:05.388Z,13.55
2018-11-12T15:28:39.968Z,13.42
2018-11-12T15:31:14.809Z,13.32
2018-11-12T15:33:49.628Z,13.16
2018-11-12T15:36:24.189Z,12.96
2018-11-12T15:38:58.757Z,12.91
2018-11-12T15:41:33.192Z,12.79
2018-11-12T15:44:08.175Z,12.61
2018-11-12T15:46:42.829Z,12.48
2018-11-12T15:49:17.697Z,12.35
2018-11-12T15:51:52.286Z,12.22
2018-11-12T15:54:27.457Z,12.11
2018-11-12T15:57:01.981Z,12.03
2018-11-12T15:59:37.063Z,11.93
2018-11-12T16:02:11.681Z,11.87
2018-11-12T16:04:46.447Z,11.76
2018-11-12T16:07:20.968Z,11.59
2018-11-12T16:09:55.830Z,11.48
2018-11-12T16:12:30.863Z,11.42
2018-11-12T16:15:05.725Z,11.30
2018-11-12T16:17:40.543Z,11.25
2018-11-12T16:20:22.289Z,11.12
2018-11-12T16:22:58.080Z,11.05
2018-11-12T16:25:33.212Z,10.97
2018-11-12T16:28:07.876Z,10.97
2018-11-12T16:30:42.792Z,10.87
2018-11-12T16:33:17.152Z,10.83
2018-11-12T16:35:51.464Z,10.66
2018-11-12T16:38:25.985Z,10.65
2018-11-12T16:41:03.188Z,10.57
2018-11-12T16:44:45.043Z,10.53
2018-11-12T16:47:19.966Z,10.41
2018-11-12T16:49:54.516Z,10.34
2018-11-12T16:52:29.101Z,10.25
2018-11-12T16:55:04.350Z,10.19
2018-11-12T16:57:38.921Z,10.19
2018-11-12T17:00:15.281Z,10.12
2018-11-12T17:02:49.938Z,9.97
2018-11-12T17:05:25.130Z,9.92
2018-11-12T17:07:59.829Z,9.91
2018-11-12T17:10:44.102Z,9.83
2018-11-12T17:13:21.534Z,9.70
2018-11-12T17:15:57.413Z,9.68
2018-11-12T17:18:31.876Z,9.61
2018-11-12T17:21:07.624Z,9.64
2018-11-12T17:23:42.755Z,9.63
2018-11-12T17:26:17.309Z,9.56
2018-11-12T17:28:51.987Z,9.59
2018-11-12T17:31:26.492Z,9.54
2018-11-12T17:34:01.221Z,9.51
2018-11-12T17:36:35.950Z,9.53
2018-11-12T17:39:11.571Z,9.39
2018-11-12T17:41:46.015Z,9.36
2018-11-12T17:44:20.512Z,9.33
2018-11-12T17:46:54.938Z,9.24
2018-11-12T17:49:29.880Z,9.17
2018-11-12T17:52:04.453Z,9.12
2018-11-12T17:54:39.246Z,9.15
2018-11-12T17:57:13.728Z,9.12
2018-11-12T17:59:48.406Z,9.08
2018-11-12T18:02:23.072Z,9.08
2018-11-12T18:04:58.257Z,9.10
2018-11-12T18:07:33.443Z,9.05
2018-11-12T18:10:11.025Z,8.99
2018-11-12T18:12:46.181Z,8.93
2018-11-12T18:15:21.766Z,8.91
2018-11-12T18:17:56.786Z,8.81
2018-11-12T18:20:31.433Z,8.80
2018-11-12T18:23:06.471Z,8.73
2018-11-12T18:25:41.097Z,8.75
2018-11-12T18:28:15.870Z,8.67
2018-11-12T18:30:50.561Z,8.63
2018-11-12T18:33:25.021Z,8.57
2018-11-12T18:35:59.666Z,8.49
2018-11-12T18:38:34.082Z,8.48
2018-11-12T18:41:08.380Z,8.38
2018-11-12T18:43:43.144Z,8.35
2018-11-12T18:46:18.125Z,8.34
2018-11-12T18:48:53.128Z,8.33
2018-11-12T18:51:28.010Z,8.29
2018-11-12T18:54:02.390Z,8.30
2018-11-12T18:56:37.097Z,8.32
2018-11-12T18:59:11.697Z,8.34
2018-11-12T19:01:46.599Z,8.31
2018-11-12T19:04:21.133Z,8.34
2018-11-12T19:06:55.713Z,8.32
2018-11-12T19:09:30.055Z,8.33
2018-11-12T19:12:05.076Z,8.33
2018-11-12T19:14:39.441Z,8.29
2018-11-12T19:17:15.467Z,8.24
2018-11-12T19:19:49.824Z,8.18
2018-11-12T19:22:25.487Z,8.14
2018-11-12T19:24:59.812Z,8.13
2018-11-12T19:27:34.220Z,8.07
2018-11-12T19:30:11.148Z,8.06
2018-11-12T19:32:47.071Z,7.98
2018-11-12T19:35:23.225Z,7.94
2018-11-12T19:37:58.569Z,7.88
2018-11-12T19:40:33.627Z,7.78
2018-11-12T19:43:08.698Z,7.68
2018-11-12T19:45:58.222Z,7.76
2018-11-12T19:48:33.736Z,7.64
2018-11-12T19:51:09.464Z,7.55
2018-11-12T19:53:44.080Z,7.53
2018-11-12T19:56:18.485Z,7.58
2018-11-12T19:58:53.133Z,7.52
2018-11-12T20:01:28.249Z,7.48
2018-11-12T20:04:03.067Z,7.44
2018-11-12T20:06:38.053Z,7.40
2018-11-12T20:09:13.372Z,7.46
2018-11-12T20:11:47.908Z,7.43
2018-11-12T20:14:22.597Z,7.39
2018-11-12T20:16:57.144Z,7.36
2018-11-12T20:19:32.109Z,7.27
2018-11-12T20:22:06.884Z,7.24
2018-11-12T20:24:42.717Z,7.23
2018-11-12T20:27:17.073Z,7.32
2018-11-12T20:29:51.660Z,7.39
2018-11-12T20:32:26.282Z,7.38
2018-11-12T20:35:01.100Z,7.37
2018-11-12T20:37:36.577Z,7.43
2018-11-12T20:40:14.222Z,7.46
2018-11-12T20:42:49.684Z,7.39
2018-11-12T20:45:24.837Z,7.31
2018-11-12T20:48:00.224Z,7.25
2018-11-12T20:50:34.948Z,7.20
2018-11-12T20:53:09.723Z,7.20
2018-11-12T20:55:44.143Z,7.09
2018-11-12T20:58:18.825Z,7.08
2018-11-12T21:00:55.425Z,7.09
2018-11-12T21:03:30.200Z,7.14
2018-11-12T21:06:06.958Z,7.16
2018-11-12T21:08:41.356Z,7.17
2018-11-12T21:11:16.167Z,7.23
2018-11-12T21:13:50.742Z,7.26
2018-11-12T21:16:25.446Z,7.26
2018-11-12T21:18:59.797Z,7.21
2018-11-12T21:21:34.249Z,7.14
2018-11-12T21:24:09.412Z,7.11
2018-11-12T21:26:43.849Z,7.04
2018-11-12T21:29:18.289Z,7.00
2018-11-12T21:31:53.976Z,7.00
2018-11-12T21:34:28.494Z,7.00
2018-11-12T21:37:03.497Z,7.02
2018-11-12T21:39:38.209Z,7.01
2018-11-12T21:42:12.756Z,6.98
2018-11-12T21:44:47.253Z,6.95
2018-11-12T21:47:21.635Z,6.99
2018-11-12T21:49:56.097Z,6.99
2018-11-12T21:52:31.214Z,6.99
2018-11-12T21:55:05.988Z,6.96
2018-11-12T21:57:41.717Z,6.97
2018-11-12T22:00:21.956Z,6.96
2018-11-12T22:03:00.889Z,6.98
2018-11-12T22:05:35.841Z,7.00
2018-11-12T22:08:10.556Z,6.87
2018-11-12T22:10:44.862Z,6.85
2018-11-12T22:13:19.276Z,6.89
2018-11-12T22:15:54.045Z,6.98
2018-11-12T22:18:28.563Z,6.95
2018-11-12T22:21:03.738Z,6.99
2018-11-12T22:23:38.946Z,6.95
2018-11-12T22:26:13.365Z,6.95
2018-11-12T22:28:48.087Z,6.97
2018-11-12T22:31:22.877Z,6.97
2018-11-12T22:33:57.307Z,6.91
2018-11-12T22:36:31.824Z,6.87
2018-11-12T22:39:08.188Z,6.81
2018-11-12T22:41:42.467Z,6.73
2018-11-12T22:44:17.181Z,6.73
2018-11-12T22:46:51.500Z,6.63
2018-11-12T22:49:26.264Z,6.59
2018-11-12T22:52:00.756Z,6.56
2018-11-12T22:54:35.166Z,6.52
2018-11-12T22:57:09.930Z,6.49
2018-11-12T22:59:44.458Z,6.47
2018-11-12T23:02:19.820Z,6.42
2018-11-12T23:04:54.436Z,6.44
2018-11-12T23:07:29.044Z,6.45
2018-11-12T23:10:04.008Z,6.46
2018-11-12T23:12:39.259Z,6.34
2018-11-12T23:15:18.311Z,6.33
2018-11-12T23:17:52.744Z,6.32
2018-11-12T23:20:28.552Z,6.28
2018-11-12T23:23:03.155Z,6.29
2018-11-12T23:25:37.924Z,6.31
2018-11-12T23:28:12.668Z,6.36
2018-11-12T23:30:47.365Z,6.24
2018-11-12T23:33:21.807Z,6.18
2018-11-12T23:35:56.110Z,6.12
2018-11-12T23:38:31.109Z,6.08
2018-11-12T23:41:05.732Z,5.98
2018-11-12T23:43:40.227Z,5.94
2018-11-12T23:46:15.042Z,5.90
2018-11-12T23:48:49.917Z,5.91
2018-11-12T23:51:24.344Z,5.89
2018-11-12T23:53:59.105Z,5.88
2018-11-12T23:56:33.689Z,5.80
2018-11-12T23:59:08.553Z,5.75
